sensor_id;sensor_type;location;lat;lon;timestamp;P1;durP1;ratioP1;P2;durP2;ratioP2
24585;SDS011;12743;52.262;6.172;2022-11-15T00:01:50;27.52;;;12.27;;
24585;SDS011;12743;52.262;6.172;2022-11-15T00:04:34;27.63;;;12.88;;
24585;SDS011;12743;52.262;6.172;2022-11-15T00:07:17;28.80;;;12.70;;
24585;SDS011;12743;52.262;6.172;2022-11-15T00:10:02;30.17;;;13.77;;
24585;SDS011;12743;52.262;6.172;2022-11-15T00:12:46;29.60;;;12.48;;
24585;SDS011;12743;52.262;6.172;2022-11-15T00:15:30;30.08;;;13.40;;
24585;SDS011;12743;52.262;6.172;2022-11-15T00:18:15;31.58;;;13.80;;
24585;SDS011;12743;52.262;6.172;2022-11-15T00:21:03;32.35;;;14.48;;
24585;SDS011;12743;52.262;6.172;2022-11-15T00:23:49;34.47;;;14.67;;
24585;SDS011;12743;52.262;6.172;2022-11-15T00:26:33;26.95;;;13.63;;
24585;SDS011;12743;52.262;6.172;2022-11-15T00:29:17;26.88;;;12.27;;
24585;SDS011;12743;52.262;6.172;2022-11-15T00:32:01;31.23;;;14.18;;
24585;SDS011;12743;52.262;6.172;2022-11-15T00:34:45;34.45;;;14.48;;
24585;SDS011;12743;52.262;6.172;2022-11-15T00:37:29;33.20;;;15.40;;
24585;SDS011;12743;52.262;6.172;2022-11-15T00:40:13;32.38;;;14.68;;
24585;SDS011;12743;52.262;6.172;2022-11-15T00:42:57;34.30;;;15.02;;
24585;SDS011;12743;52.262;6.172;2022-11-15T00:45:41;32.85;;;13.70;;
24585;SDS011;12743;52.262;6.172;2022-11-15T00:48:26;35.55;;;15.70;;
24585;SDS011;12743;52.262;6.172;2022-11-15T00:51:10;31.57;;;14.90;;
24585;SDS011;12743;52.262;6.172;2022-11-15T00:53:54;35.47;;;15.48;;
24585;SDS011;12743;52.262;6.172;2022-11-15T00:56:38;41.92;;;16.63;;
24585;SDS011;12743;52.262;6.172;2022-11-15T00:59:22;36.63;;;14.82;;
24585;SDS011;12743;52.262;6.172;2022-11-15T01:02:06;44.45;;;17.73;;
24585;SDS011;12743;52.262;6.172;2022-11-15T01:04:50;44.00;;;17.47;;
24585;SDS011;12743;52.262;6.172;2022-11-15T01:07:34;45.85;;;19.13;;
24585;SDS011;12743;52.262;6.172;2022-11-15T01:10:18;41.78;;;16.55;;
24585;SDS011;12743;52.262;6.172;2022-11-15T01:13:02;44.22;;;18.63;;
24585;SDS011;12743;52.262;6.172;2022-11-15T01:15:46;52.47;;;20.92;;
24585;SDS011;12743;52.262;6.172;2022-11-15T01:18:30;47.63;;;19.80;;
24585;SDS011;12743;52.262;6.172;2022-11-15T01:21:16;48.97;;;22.65;;
24585;SDS011;12743;52.262;6.172;2022-11-15T01:24:01;43.97;;;18.08;;
24585;SDS011;12743;52.262;6.172;2022-11-15T01:26:45;52.13;;;18.98;;
24585;SDS011;12743;52.262;6.172;2022-11-15T01:29:30;53.08;;;19.30;;
24585;SDS011;12743;52.262;6.172;2022-11-15T01:32:13;51.73;;;19.60;;
24585;SDS011;12743;52.262;6.172;2022-11-15T01:34:57;46.88;;;18.05;;
24585;SDS011;12743;52.262;6.172;2022-11-15T01:37:41;52.85;;;18.15;;
24585;SDS011;12743;52.262;6.172;2022-11-15T01:40:25;50.72;;;18.73;;
24585;SDS011;12743;52.262;6.172;2022-11-15T01:43:26;58.75;;;20.98;;
24585;SDS011;12743;52.262;6.172;2022-11-15T01:49:05;55.90;;;21.13;;
24585;SDS011;12743;52.262;6.172;2022-11-15T01:51:58;62.45;;;21.13;;
24585;SDS011;12743;52.262;6.172;2022-11-15T01:54:45;48.50;;;19.40;;
24585;SDS011;12743;52.262;6.172;2022-11-15T01:57:30;54.25;;;21.70;;
24585;SDS011;12743;52.262;6.172;2022-11-15T02:00:14;59.17;;;22.80;;
24585;SDS011;12743;52.262;6.172;2022-11-15T02:02:59;56.33;;;20.15;;
24585;SDS011;12743;52.262;6.172;2022-11-15T02:05:43;53.53;;;20.83;;
24585;SDS011;12743;52.262;6.172;2022-11-15T02:08:27;51.75;;;20.73;;
24585;SDS011;12743;52.262;6.172;2022-11-15T02:11:12;54.83;;;19.80;;
24585;SDS011;12743;52.262;6.172;2022-11-15T02:13:56;55.47;;;21.57;;
24585;SDS011;12743;52.262;6.172;2022-11-15T02:23:26;54.15;;;22.40;;
24585;SDS011;12743;52.262;6.172;2022-11-15T02:29:46;61.27;;;21.83;;
24585;SDS011;12743;52.262;6.172;2022-11-15T02:33:35;69.00;;;23.17;;
24585;SDS011;12743;52.262;6.172;2022-11-15T02:38:58;63.95;;;22.52;;
24585;SDS011;12743;52.262;6.172;2022-11-15T02:41:57;60.33;;;23.90;;
24585;SDS011;12743;52.262;6.172;2022-11-15T02:44:46;61.30;;;21.93;;
24585;SDS011;12743;52.262;6.172;2022-11-15T02:47:33;60.85;;;23.30;;
24585;SDS011;12743;52.262;6.172;2022-11-15T02:50:23;59.80;;;24.40;;
24585;SDS011;12743;52.262;6.172;2022-11-15T02:53:09;59.53;;;23.05;;
24585;SDS011;12743;52.262;6.172;2022-11-15T02:55:53;56.90;;;22.45;;
24585;SDS011;12743;52.262;6.172;2022-11-15T02:58:48;55.10;;;23.23;;
24585;SDS011;12743;52.262;6.172;2022-11-15T03:14:04;55.93;;;22.17;;
24585;SDS011;12743;52.262;6.172;2022-11-15T03:19:57;51.20;;;20.83;;
24585;SDS011;12743;52.262;6.172;2022-11-15T03:22:44;53.67;;;22.45;;
24585;SDS011;12743;52.262;6.172;2022-11-15T03:25:30;43.45;;;18.58;;
24585;SDS011;12743;52.262;6.172;2022-11-15T03:28:25;43.70;;;19.50;;
24585;SDS011;12743;52.262;6.172;2022-11-15T03:31:16;46.38;;;20.25;;
24585;SDS011;12743;52.262;6.172;2022-11-15T03:37:15;46.67;;;21.27;;
24585;SDS011;12743;52.262;6.172;2022-11-15T03:40:01;41.47;;;20.13;;
24585;SDS011;12743;52.262;6.172;2022-11-15T03:42:48;41.77;;;19.53;;
24585;SDS011;12743;52.262;6.172;2022-11-15T03:45:39;37.83;;;18.77;;
24585;SDS011;12743;52.262;6.172;2022-11-15T03:48:28;36.60;;;18.40;;
24585;SDS011;12743;52.262;6.172;2022-11-15T03:51:17;40.10;;;18.60;;
24585;SDS011;12743;52.262;6.172;2022-11-15T03:54:03;37.05;;;17.80;;
24585;SDS011;12743;52.262;6.172;2022-11-15T03:56:47;41.60;;;21.57;;
24585;SDS011;12743;52.262;6.172;2022-11-15T03:59:31;42.60;;;18.95;;
24585;SDS011;12743;52.262;6.172;2022-11-15T04:02:16;36.13;;;17.23;;
24585;SDS011;12743;52.262;6.172;2022-11-15T04:05:00;39.60;;;17.17;;
24585;SDS011;12743;52.262;6.172;2022-11-15T04:07:44;36.47;;;18.17;;
24585;SDS011;12743;52.262;6.172;2022-11-15T04:10:28;39.30;;;18.20;;
24585;SDS011;12743;52.262;6.172;2022-11-15T04:13:11;35.50;;;17.73;;
24585;SDS011;12743;52.262;6.172;2022-11-15T04:15:55;35.92;;;17.15;;
24585;SDS011;12743;52.262;6.172;2022-11-15T04:18:39;34.85;;;16.80;;
24585;SDS011;12743;52.262;6.172;2022-11-15T04:21:23;32.38;;;16.70;;
24585;SDS011;12743;52.262;6.172;2022-11-15T04:24:26;37.43;;;17.77;;
24585;SDS011;12743;52.262;6.172;2022-11-15T04:27:10;41.53;;;18.50;;
24585;SDS011;12743;52.262;6.172;2022-11-15T04:29:56;33.17;;;16.60;;
24585;SDS011;12743;52.262;6.172;2022-11-15T04:32:40;33.42;;;17.05;;
24585;SDS011;12743;52.262;6.172;2022-11-15T04:35:24;36.45;;;17.13;;
24585;SDS011;12743;52.262;6.172;2022-11-15T04:38:09;35.67;;;16.43;;
24585;SDS011;12743;52.262;6.172;2022-11-15T04:40:54;33.85;;;15.85;;
24585;SDS011;12743;52.262;6.172;2022-11-15T04:43:37;33.58;;;17.33;;
24585;SDS011;12743;52.262;6.172;2022-11-15T04:46:25;35.30;;;17.20;;
24585;SDS011;12743;52.262;6.172;2022-11-15T04:49:09;33.85;;;15.10;;
24585;SDS011;12743;52.262;6.172;2022-11-15T04:51:53;32.77;;;15.73;;
24585;SDS011;12743;52.262;6.172;2022-11-15T04:54:37;32.10;;;17.23;;
24585;SDS011;12743;52.262;6.172;2022-11-15T04:57:21;35.85;;;18.50;;
24585;SDS011;12743;52.262;6.172;2022-11-15T05:00:06;37.80;;;18.38;;
24585;SDS011;12743;52.262;6.172;2022-11-15T05:02:52;33.13;;;17.38;;
24585;SDS011;12743;52.262;6.172;2022-11-15T05:05:55;35.60;;;16.60;;
24585;SDS011;12743;52.262;6.172;2022-11-15T05:08:39;33.90;;;17.27;;
24585;SDS011;12743;52.262;6.172;2022-11-15T05:11:23;40.03;;;19.67;;
24585;SDS011;12743;52.262;6.172;2022-11-15T05:14:07;35.72;;;17.27;;
24585;SDS011;12743;52.262;6.172;2022-11-15T05:16:51;34.58;;;18.13;;
24585;SDS011;12743;52.262;6.172;2022-11-15T05:19:35;38.93;;;19.07;;
24585;SDS011;12743;52.262;6.172;2022-11-15T05:22:20;37.72;;;18.27;;
24585;SDS011;12743;52.262;6.172;2022-11-15T05:25:04;37.50;;;17.52;;
24585;SDS011;12743;52.262;6.172;2022-11-15T05:27:49;37.63;;;18.98;;
24585;SDS011;12743;52.262;6.172;2022-11-15T05:30:33;36.95;;;18.92;;
24585;SDS011;12743;52.262;6.172;2022-11-15T05:33:17;35.40;;;17.07;;
24585;SDS011;12743;52.262;6.172;2022-11-15T05:39:10;35.22;;;17.77;;
24585;SDS011;12743;52.262;6.172;2022-11-15T05:42:04;35.47;;;18.80;;
24585;SDS011;12743;52.262;6.172;2022-11-15T05:44:54;34.67;;;17.40;;
24585;SDS011;12743;52.262;6.172;2022-11-15T05:47:38;36.30;;;17.60;;
24585;SDS011;12743;52.262;6.172;2022-11-15T05:50:23;36.13;;;17.65;;
24585;SDS011;12743;52.262;6.172;2022-11-15T05:53:06;36.58;;;17.00;;
24585;SDS011;12743;52.262;6.172;2022-11-15T05:55:51;35.83;;;17.88;;
24585;SDS011;12743;52.262;6.172;2022-11-15T05:58:35;36.13;;;17.48;;
24585;SDS011;12743;52.262;6.172;2022-11-15T06:01:20;35.00;;;17.23;;
24585;SDS011;12743;52.262;6.172;2022-11-15T06:04:05;39.22;;;17.33;;
24585;SDS011;12743;52.262;6.172;2022-11-15T06:06:49;33.17;;;17.05;;
24585;SDS011;12743;52.262;6.172;2022-11-15T06:09:33;35.83;;;18.40;;
24585;SDS011;12743;52.262;6.172;2022-11-15T06:12:17;38.53;;;19.52;;
24585;SDS011;12743;52.262;6.172;2022-11-15T06:15:02;37.87;;;19.57;;
24585;SDS011;12743;52.262;6.172;2022-11-15T06:17:46;34.60;;;18.08;;
24585;SDS011;12743;52.262;6.172;2022-11-15T06:20:30;37.58;;;21.00;;
24585;SDS011;12743;52.262;6.172;2022-11-15T06:23:14;38.90;;;19.83;;
24585;SDS011;12743;52.262;6.172;2022-11-15T06:25:58;36.08;;;17.27;;
24585;SDS011;12743;52.262;6.172;2022-11-15T06:28:43;36.90;;;18.10;;
24585;SDS011;12743;52.262;6.172;2022-11-15T06:31:27;35.33;;;17.85;;
24585;SDS011;12743;52.262;6.172;2022-11-15T06:34:11;36.90;;;17.60;;
24585;SDS011;12743;52.262;6.172;2022-11-15T06:36:55;36.70;;;17.42;;
24585;SDS011;12743;52.262;6.172;2022-11-15T06:39:39;39.00;;;17.20;;
24585;SDS011;12743;52.262;6.172;2022-11-15T06:42:23;36.80;;;19.67;;
24585;SDS011;12743;52.262;6.172;2022-11-15T06:45:08;37.17;;;17.35;;
24585;SDS011;12743;52.262;6.172;2022-11-15T06:47:52;34.22;;;16.58;;
24585;SDS011;12743;52.262;6.172;2022-11-15T06:50:36;33.55;;;16.50;;
24585;SDS011;12743;52.262;6.172;2022-11-15T06:53:20;33.08;;;15.82;;
24585;SDS011;12743;52.262;6.172;2022-11-15T06:56:05;34.07;;;16.33;;
24585;SDS011;12743;52.262;6.172;2022-11-15T06:58:50;38.45;;;17.50;;
24585;SDS011;12743;52.262;6.172;2022-11-15T07:01:34;32.55;;;16.35;;
24585;SDS011;12743;52.262;6.172;2022-11-15T07:04:19;35.13;;;17.00;;
24585;SDS011;12743;52.262;6.172;2022-11-15T07:07:03;40.20;;;17.88;;
24585;SDS011;12743;52.262;6.172;2022-11-15T07:09:47;40.17;;;19.57;;
24585;SDS011;12743;52.262;6.172;2022-11-15T07:12:31;34.15;;;17.58;;
24585;SDS011;12743;52.262;6.172;2022-11-15T07:15:15;38.20;;;17.52;;
24585;SDS011;12743;52.262;6.172;2022-11-15T07:18:00;34.92;;;17.35;;
24585;SDS011;12743;52.262;6.172;2022-11-15T07:20:45;42.80;;;18.08;;
24585;SDS011;12743;52.262;6.172;2022-11-15T07:23:29;38.77;;;18.80;;
24585;SDS011;12743;52.262;6.172;2022-11-15T07:26:13;46.63;;;19.35;;
24585;SDS011;12743;52.262;6.172;2022-11-15T07:28:57;38.25;;;19.73;;
24585;SDS011;12743;52.262;6.172;2022-11-15T07:31:42;47.95;;;18.80;;
24585;SDS011;12743;52.262;6.172;2022-11-15T07:34:26;39.35;;;17.38;;
24585;SDS011;12743;52.262;6.172;2022-11-15T07:37:10;36.00;;;18.13;;
24585;SDS011;12743;52.262;6.172;2022-11-15T07:39:55;42.22;;;19.45;;
24585;SDS011;12743;52.262;6.172;2022-11-15T07:42:39;41.13;;;19.65;;
24585;SDS011;12743;52.262;6.172;2022-11-15T07:45:40;38.78;;;16.85;;
24585;SDS011;12743;52.262;6.172;2022-11-15T07:48:28;38.10;;;17.17;;
24585;SDS011;12743;52.262;6.172;2022-11-15T07:51:12;37.40;;;18.30;;
24585;SDS011;12743;52.262;6.172;2022-11-15T07:53:58;44.78;;;18.63;;
24585;SDS011;12743;52.262;6.172;2022-11-15T07:56:42;38.63;;;18.05;;
24585;SDS011;12743;52.262;6.172;2022-11-15T07:59:26;41.00;;;18.08;;
24585;SDS011;12743;52.262;6.172;2022-11-15T08:02:10;39.60;;;19.08;;
24585;SDS011;12743;52.262;6.172;2022-11-15T08:04:54;37.93;;;17.37;;
24585;SDS011;12743;52.262;6.172;2022-11-15T08:07:39;38.88;;;17.50;;
24585;SDS011;12743;52.262;6.172;2022-11-15T08:10:24;39.13;;;18.52;;
24585;SDS011;12743;52.262;6.172;2022-11-15T08:13:09;37.60;;;16.83;;
24585;SDS011;12743;52.262;6.172;2022-11-15T08:16:01;41.00;;;17.75;;
24585;SDS011;12743;52.262;6.172;2022-11-15T08:18:46;42.83;;;18.83;;
24585;SDS011;12743;52.262;6.172;2022-11-15T08:21:30;37.22;;;16.85;;
24585;SDS011;12743;52.262;6.172;2022-11-15T08:24:14;35.75;;;17.42;;
24585;SDS011;12743;52.262;6.172;2022-11-15T08:26:59;36.83;;;17.73;;
24585;SDS011;12743;52.262;6.172;2022-11-15T08:29:43;35.03;;;16.40;;
24585;SDS011;12743;52.262;6.172;2022-11-15T08:32:28;38.00;;;17.17;;
24585;SDS011;12743;52.262;6.172;2022-11-15T08:35:12;34.92;;;16.08;;
24585;SDS011;12743;52.262;6.172;2022-11-15T08:37:56;34.42;;;16.40;;
24585;SDS011;12743;52.262;6.172;2022-11-15T08:40:40;32.38;;;15.52;;
24585;SDS011;12743;52.262;6.172;2022-11-15T08:43:25;32.67;;;16.30;;
24585;SDS011;12743;52.262;6.172;2022-11-15T08:46:10;35.90;;;16.33;;
24585;SDS011;12743;52.262;6.172;2022-11-15T08:48:56;34.13;;;15.32;;
24585;SDS011;12743;52.262;6.172;2022-11-15T08:51:40;34.65;;;15.32;;
24585;SDS011;12743;52.262;6.172;2022-11-15T08:54:24;27.20;;;14.27;;
24585;SDS011;12743;52.262;6.172;2022-11-15T08:57:08;29.83;;;14.55;;
24585;SDS011;12743;52.262;6.172;2022-11-15T08:59:52;32.17;;;14.80;;
24585;SDS011;12743;52.262;6.172;2022-11-15T09:02:37;25.23;;;13.88;;
24585;SDS011;12743;52.262;6.172;2022-11-15T09:05:22;29.13;;;15.10;;
24585;SDS011;12743;52.262;6.172;2022-11-15T09:08:06;27.38;;;13.95;;
24585;SDS011;12743;52.262;6.172;2022-11-15T09:10:50;30.45;;;14.45;;
24585;SDS011;12743;52.262;6.172;2022-11-15T09:13:35;29.67;;;14.80;;
24585;SDS011;12743;52.262;6.172;2022-11-15T09:16:22;33.45;;;14.65;;
24585;SDS011;12743;52.262;6.172;2022-11-15T09:19:06;27.45;;;15.00;;
24585;SDS011;12743;52.262;6.172;2022-11-15T09:21:51;29.52;;;14.70;;
24585;SDS011;12743;52.262;6.172;2022-11-15T09:24:35;30.00;;;13.75;;
24585;SDS011;12743;52.262;6.172;2022-11-15T09:27:19;24.43;;;14.17;;
24585;SDS011;12743;52.262;6.172;2022-11-15T09:30:04;30.08;;;13.43;;
24585;SDS011;12743;52.262;6.172;2022-11-15T09:32:49;28.17;;;13.02;;
24585;SDS011;12743;52.262;6.172;2022-11-15T09:35:33;23.90;;;12.77;;
24585;SDS011;12743;52.262;6.172;2022-11-15T09:38:17;25.45;;;12.75;;
24585;SDS011;12743;52.262;6.172;2022-11-15T09:49:59;22.73;;;12.10;;
24585;SDS011;12743;52.262;6.172;2022-11-15T09:52:32;22.63;;;11.68;;
24585;SDS011;12743;52.262;6.172;2022-11-15T09:54:59;23.03;;;10.43;;
24585;SDS011;12743;52.262;6.172;2022-11-15T09:57:32;20.33;;;11.63;;
24585;SDS011;12743;52.262;6.172;2022-11-15T10:00:10;18.60;;;9.27;;
24585;SDS011;12743;52.262;6.172;2022-11-15T10:02:46;20.73;;;10.05;;
24585;SDS011;12743;52.262;6.172;2022-11-15T10:05:18;20.27;;;9.77;;
24585;SDS011;12743;52.262;6.172;2022-11-15T10:13:11;20.10;;;8.50;;
24585;SDS011;12743;52.262;6.172;2022-11-15T10:15:42;15.45;;;8.18;;
24585;SDS011;12743;52.262;6.172;2022-11-15T10:18:14;15.93;;;7.90;;
24585;SDS011;12743;52.262;6.172;2022-11-15T10:20:47;17.35;;;7.90;;
24585;SDS011;12743;52.262;6.172;2022-11-15T10:23:21;14.55;;;6.65;;
24585;SDS011;12743;52.262;6.172;2022-11-15T10:25:47;13.90;;;6.20;;
24585;SDS011;12743;52.262;6.172;2022-11-15T10:28:27;11.63;;;6.53;;
24585;SDS011;12743;52.262;6.172;2022-11-15T10:30:55;14.73;;;6.30;;
24585;SDS011;12743;52.262;6.172;2022-11-15T10:33:35;12.93;;;6.45;;
24585;SDS011;12743;52.262;6.172;2022-11-15T10:38:33;13.87;;;5.70;;
24585;SDS011;12743;52.262;6.172;2022-11-15T10:41:12;12.57;;;6.13;;
24585;SDS011;12743;52.262;6.172;2022-11-15T10:43:38;8.97;;;5.50;;
24585;SDS011;12743;52.262;6.172;2022-11-15T10:46:16;11.80;;;5.78;;
24585;SDS011;12743;52.262;6.172;2022-11-15T10:48:45;13.33;;;5.67;;
24585;SDS011;12743;52.262;6.172;2022-11-15T10:51:19;10.52;;;5.47;;
24585;SDS011;12743;52.262;6.172;2022-11-15T10:53:50;12.73;;;5.27;;
24585;SDS011;12743;52.262;6.172;2022-11-15T10:56:16;10.80;;;4.93;;
24585;SDS011;12743;52.262;6.172;2022-11-15T10:58:50;9.80;;;5.50;;
24585;SDS011;12743;52.262;6.172;2022-11-15T11:01:27;10.38;;;4.88;;
24585;SDS011;12743;52.262;6.172;2022-11-15T11:04:07;9.52;;;4.90;;
24585;SDS011;12743;52.262;6.172;2022-11-15T11:11:49;10.80;;;4.57;;
24585;SDS011;12743;52.262;6.172;2022-11-15T11:14:23;9.57;;;4.60;;
24585;SDS011;12743;52.262;6.172;2022-11-15T11:17:13;12.60;;;4.45;;
24585;SDS011;12743;52.262;6.172;2022-11-15T11:28:35;9.05;;;3.47;;
24585;SDS011;12743;52.262;6.172;2022-11-15T11:42:58;7.03;;;2.47;;
24585;SDS011;12743;52.262;6.172;2022-11-15T11:51:05;5.10;;;2.00;;
24585;SDS011;12743;52.262;6.172;2022-11-15T11:53:41;4.57;;;1.73;;
24585;SDS011;12743;52.262;6.172;2022-11-15T11:56:16;9.85;;;2.00;;
24585;SDS011;12743;52.262;6.172;2022-11-15T11:58:46;5.57;;;1.80;;
24585;SDS011;12743;52.262;6.172;2022-11-15T12:01:26;6.67;;;1.47;;
24585;SDS011;12743;52.262;6.172;2022-11-15T12:04:03;4.55;;;1.52;;
24585;SDS011;12743;52.262;6.172;2022-11-15T12:09:36;4.03;;;1.55;;
24585;SDS011;12743;52.262;6.172;2022-11-15T12:12:16;3.35;;;1.55;;
24585;SDS011;12743;52.262;6.172;2022-11-15T12:17:29;6.65;;;1.75;;
24585;SDS011;12743;52.262;6.172;2022-11-15T12:20:00;5.55;;;2.28;;
24585;SDS011;12743;52.262;6.172;2022-11-15T12:25:21;5.03;;;1.65;;
24585;SDS011;12743;52.262;6.172;2022-11-15T12:30:43;4.72;;;1.38;;
24585;SDS011;12743;52.262;6.172;2022-11-15T12:36:09;4.57;;;1.23;;
24585;SDS011;12743;52.262;6.172;2022-11-15T12:38:54;4.28;;;1.20;;
24585;SDS011;12743;52.262;6.172;2022-11-15T12:41:20;4.90;;;0.90;;
24585;SDS011;12743;52.262;6.172;2022-11-15T12:43:47;3.90;;;0.63;;
24585;SDS011;12743;52.262;6.172;2022-11-15T13:00:36;2.60;;;0.60;;
24585;SDS011;12743;52.262;6.172;2022-11-15T13:02:47;3.53;;;0.40;;
24585;SDS011;12743;52.262;6.172;2022-11-15T13:30:38;4.50;;;0.60;;
24585;SDS011;12743;52.262;6.172;2022-11-15T13:33:13;2.83;;;0.30;;
24585;SDS011;12743;52.262;6.172;2022-11-15T13:35:41;2.88;;;0.52;;
24585;SDS011;12743;52.262;6.172;2022-11-15T13:38:11;3.47;;;0.40;;
24585;SDS011;12743;52.262;6.172;2022-11-15T13:40:44;4.25;;;0.45;;
24585;SDS011;12743;52.262;6.172;2022-11-15T13:46:05;1.88;;;0.30;;
24585;SDS011;12743;52.262;6.172;2022-11-15T13:48:38;1.70;;;0.30;;
24585;SDS011;12743;52.262;6.172;2022-11-15T13:51:25;4.00;;;0.47;;
24585;SDS011;12743;52.262;6.172;2022-11-15T13:56:38;5.30;;;0.55;;
24585;SDS011;12743;52.262;6.172;2022-11-15T13:59:44;4.18;;;0.50;;
24585;SDS011;12743;52.262;6.172;2022-11-15T14:02:16;5.63;;;0.53;;
24585;SDS011;12743;52.262;6.172;2022-11-15T14:04:54;4.32;;;0.60;;
24585;SDS011;12743;52.262;6.172;2022-11-15T14:07:24;5.50;;;0.60;;
24585;SDS011;12743;52.262;6.172;2022-11-15T14:09:52;5.40;;;0.50;;
24585;SDS011;12743;52.262;6.172;2022-11-15T14:14:52;4.10;;;0.80;;
24585;SDS011;12743;52.262;6.172;2022-11-15T14:19:55;3.80;;;0.70;;
24585;SDS011;12743;52.262;6.172;2022-11-15T14:22:22;4.55;;;0.88;;
24585;SDS011;12743;52.262;6.172;2022-11-15T14:30:53;2.77;;;0.67;;
24585;SDS011;12743;52.262;6.172;2022-11-15T14:33:24;3.53;;;0.90;;
24585;SDS011;12743;52.262;6.172;2022-11-15T14:35:55;7.45;;;0.90;;
24585;SDS011;12743;52.262;6.172;2022-11-15T14:38:22;3.67;;;0.82;;
24585;SDS011;12743;52.262;6.172;2022-11-15T14:40:48;5.28;;;1.52;;
24585;SDS011;12743;52.262;6.172;2022-11-15T14:43:14;4.50;;;1.10;;
24585;SDS011;12743;52.262;6.172;2022-11-15T14:45:39;4.33;;;1.03;;
24585;SDS011;12743;52.262;6.172;2022-11-15T14:48:05;4.80;;;1.00;;
24585;SDS011;12743;52.262;6.172;2022-11-15T14:50:31;5.63;;;0.97;;
24585;SDS011;12743;52.262;6.172;2022-11-15T14:52:58;8.48;;;1.20;;
24585;SDS011;12743;52.262;6.172;2022-11-15T14:55:24;4.20;;;0.70;;
24585;SDS011;12743;52.262;6.172;2022-11-15T14:57:56;3.88;;;0.70;;
24585;SDS011;12743;52.262;6.172;2022-11-15T15:00:21;4.43;;;0.60;;
24585;SDS011;12743;52.262;6.172;2022-11-15T15:02:48;5.65;;;0.80;;
24585;SDS011;12743;52.262;6.172;2022-11-15T15:05:25;4.90;;;0.80;;
24585;SDS011;12743;52.262;6.172;2022-11-15T15:07:55;6.57;;;0.80;;
24585;SDS011;12743;52.262;6.172;2022-11-15T15:10:20;4.07;;;0.73;;
24585;SDS011;12743;52.262;6.172;2022-11-15T15:12:47;6.35;;;0.80;;
24585;SDS011;12743;52.262;6.172;2022-11-15T15:15:15;4.13;;;1.05;;
24585;SDS011;12743;52.262;6.172;2022-11-15T15:17:42;6.07;;;1.17;;
24585;SDS011;12743;52.262;6.172;2022-11-15T15:20:08;6.30;;;1.30;;
24585;SDS011;12743;52.262;6.172;2022-11-15T15:22:35;6.63;;;1.10;;
24585;SDS011;12743;52.262;6.172;2022-11-15T15:25:00;4.40;;;0.90;;
24585;SDS011;12743;52.262;6.172;2022-11-15T15:27:26;3.63;;;0.87;;
24585;SDS011;12743;52.262;6.172;2022-11-15T15:29:51;3.83;;;0.90;;
24585;SDS011;12743;52.262;6.172;2022-11-15T15:32:16;6.77;;;0.80;;
24585;SDS011;12743;52.262;6.172;2022-11-15T15:34:42;4.60;;;0.90;;
24585;SDS011;12743;52.262;6.172;2022-11-15T15:39:50;6.93;;;1.77;;
24585;SDS011;12743;52.262;6.172;2022-11-15T15:42:16;3.73;;;1.47;;
24585;SDS011;12743;52.262;6.172;2022-11-15T15:44:41;3.37;;;1.00;;
24585;SDS011;12743;52.262;6.172;2022-11-15T15:47:13;4.60;;;1.10;;
24585;SDS011;12743;52.262;6.172;2022-11-15T15:49:41;6.10;;;1.30;;
24585;SDS011;12743;52.262;6.172;2022-11-15T15:52:07;8.32;;;3.13;;
24585;SDS011;12743;52.262;6.172;2022-11-15T15:54:32;8.93;;;2.23;;
24585;SDS011;12743;52.262;6.172;2022-11-15T15:56:57;7.27;;;2.03;;
24585;SDS011;12743;52.262;6.172;2022-11-15T15:59:23;3.07;;;0.90;;
24585;SDS011;12743;52.262;6.172;2022-11-15T16:01:48;4.87;;;1.27;;
24585;SDS011;12743;52.262;6.172;2022-11-15T16:04:13;6.67;;;1.10;;
24585;SDS011;12743;52.262;6.172;2022-11-15T16:06:39;5.53;;;1.20;;
24585;SDS011;12743;52.262;6.172;2022-11-15T16:09:10;3.37;;;0.73;;
24585;SDS011;12743;52.262;6.172;2022-11-15T16:11:41;3.53;;;0.77;;
24585;SDS011;12743;52.262;6.172;2022-11-15T16:14:07;4.38;;;1.10;;
24585;SDS011;12743;52.262;6.172;2022-11-15T16:16:33;5.18;;;1.20;;
24585;SDS011;12743;52.262;6.172;2022-11-15T16:18:59;3.08;;;0.73;;
24585;SDS011;12743;52.262;6.172;2022-11-15T16:21:26;5.33;;;1.50;;
24585;SDS011;12743;52.262;6.172;2022-11-15T16:23:51;6.05;;;0.93;;
24585;SDS011;12743;52.262;6.172;2022-11-15T16:26:35;5.17;;;1.27;;
24585;SDS011;12743;52.262;6.172;2022-11-15T16:29:02;4.57;;;0.80;;
24585;SDS011;12743;52.262;6.172;2022-11-15T16:31:27;4.70;;;1.00;;
24585;SDS011;12743;52.262;6.172;2022-11-15T16:33:53;6.50;;;2.10;;
24585;SDS011;12743;52.262;6.172;2022-11-15T16:36:19;6.27;;;1.17;;
24585;SDS011;12743;52.262;6.172;2022-11-15T16:38:46;6.50;;;1.90;;
24585;SDS011;12743;52.262;6.172;2022-11-15T16:41:12;5.70;;;1.50;;
24585;SDS011;12743;52.262;6.172;2022-11-15T16:43:37;5.97;;;1.10;;
24585;SDS011;12743;52.262;6.172;2022-11-15T16:46:13;5.20;;;0.93;;
24585;SDS011;12743;52.262;6.172;2022-11-15T16:48:41;4.22;;;1.30;;
24585;SDS011;12743;52.262;6.172;2022-11-15T16:51:07;5.13;;;0.77;;
24585;SDS011;12743;52.262;6.172;2022-11-15T16:53:32;4.18;;;0.90;;
24585;SDS011;12743;52.262;6.172;2022-11-15T16:55:58;6.07;;;0.73;;
24585;SDS011;12743;52.262;6.172;2022-11-15T16:58:23;3.17;;;0.70;;
24585;SDS011;12743;52.262;6.172;2022-11-15T17:00:50;3.70;;;0.60;;
24585;SDS011;12743;52.262;6.172;2022-11-15T17:03:16;2.67;;;0.70;;
24585;SDS011;12743;52.262;6.172;2022-11-15T17:05:41;3.57;;;0.60;;
24585;SDS011;12743;52.262;6.172;2022-11-15T17:08:07;6.22;;;0.95;;
24585;SDS011;12743;52.262;6.172;2022-11-15T17:10:32;4.57;;;0.73;;
24585;SDS011;12743;52.262;6.172;2022-11-15T17:12:58;3.20;;;0.63;;
24585;SDS011;12743;52.262;6.172;2022-11-15T17:15:23;6.03;;;0.80;;
24585;SDS011;12743;52.262;6.172;2022-11-15T17:17:52;6.45;;;1.00;;
24585;SDS011;12743;52.262;6.172;2022-11-15T17:20:19;5.22;;;0.90;;
24585;SDS011;12743;52.262;6.172;2022-11-15T17:22:47;6.17;;;0.70;;
24585;SDS011;12743;52.262;6.172;2022-11-15T17:25:13;3.15;;;0.75;;
24585;SDS011;12743;52.262;6.172;2022-11-15T17:27:39;7.15;;;1.17;;
24585;SDS011;12743;52.262;6.172;2022-11-15T17:30:05;6.20;;;1.57;;
24585;SDS011;12743;52.262;6.172;2022-11-15T17:32:31;7.95;;;3.50;;
24585;SDS011;12743;52.262;6.172;2022-11-15T17:34:59;5.35;;;1.92;;
24585;SDS011;12743;52.262;6.172;2022-11-15T17:37:25;6.97;;;2.27;;
24585;SDS011;12743;52.262;6.172;2022-11-15T17:39:50;14.43;;;6.07;;
24585;SDS011;12743;52.262;6.172;2022-11-15T17:42:15;23.83;;;11.00;;
24585;SDS011;12743;52.262;6.172;2022-11-15T17:44:41;11.23;;;3.23;;
24585;SDS011;12743;52.262;6.172;2022-11-15T17:47:06;15.90;;;7.37;;
24585;SDS011;12743;52.262;6.172;2022-11-15T17:49:32;21.90;;;10.05;;
24585;SDS011;12743;52.262;6.172;2022-11-15T17:52:02;7.13;;;2.67;;
24585;SDS011;12743;52.262;6.172;2022-11-15T17:54:27;5.07;;;1.70;;
24585;SDS011;12743;52.262;6.172;2022-11-15T17:56:52;10.80;;;2.00;;
24585;SDS011;12743;52.262;6.172;2022-11-15T17:59:18;7.37;;;1.80;;
24585;SDS011;12743;52.262;6.172;2022-11-15T18:01:43;7.00;;;1.93;;
24585;SDS011;12743;52.262;6.172;2022-11-15T18:04:08;6.93;;;1.70;;
24585;SDS011;12743;52.262;6.172;2022-11-15T18:06:35;5.05;;;1.27;;
24585;SDS011;12743;52.262;6.172;2022-11-15T18:09:01;4.45;;;1.20;;
24585;SDS011;12743;52.262;6.172;2022-11-15T18:11:28;4.68;;;1.10;;
24585;SDS011;12743;52.262;6.172;2022-11-15T18:13:59;4.77;;;1.20;;
24585;SDS011;12743;52.262;6.172;2022-11-15T18:16:27;7.38;;;2.72;;